Time;durP1;ratioP1;P1;durP2;ratioP2;P2;SDS_P1;SDS_P2;PMS_P1;PMS_P2;Temp;Humidity;BMP_temperature;BMP_pressure;BME280_temperature;BME280_humidity;BME280_pressure;Samples;Min_cycle;Max_cycle;Signal;HPM_P1;HPM_P2
2023/03/12 00:01:53;;;;;;;15.15;8.82;;;;;;;1.85;63.52;100412.16;4131332;28;20287;-76
2023/03/12 00:04:01;;;;;;;13.50;7.90;;;;;;;1.87;63.45;100407.97;4131507;28;20050;-76
2023/03/12 00:06:04;;;;;;;;;;;;;;;1.81;64.28;100405.13;4128961;28;20133;-76
2023/03/12 00:08:13;;;;;;;19.05;10.32;;;;;;;1.78;63.44;100410.09;4128005;28;19921;-76
2023/03/12 00:10:16;;;;;;;22.52;11.73;;;;;;;1.75;63.56;100415.94;4130686;28;20038;-76
2023/03/12 00:12:19;;;;;;;16.65;9.95;;;;;;;1.75;63.58;100410.81;4131539;28;20043;-76
2023/03/12 00:14:23;;;;;;;19.95;10.02;;;;;;;1.76;63.84;100406.59;4115066;28;20046;-77
2023/03/12 00:16:27;;;;;;;16.88;9.02;;;;;;;1.77;63.28;100411.78;4124230;28;20042;-76
2023/03/12 00:18:29;;;;;;;20.90;10.80;;;;;;;1.80;63.02;100409.38;4130261;28;20251;-76
2023/03/12 00:20:33;;;;;;;22.73;12.40;;;;;;;1.82;63.53;100417.16;4100611;28;20078;-76
2023/03/12 00:22:37;;;;;;;22.92;11.50;;;;;;;1.83;63.49;100413.78;4123703;28;20101;-76
2023/03/12 00:24:41;;;;;;;20.15;12.38;;;;;;;1.81;63.37;100420.50;4131751;28;20585;-76
2023/03/12 00:26:44;;;;;;;16.50;9.43;;;;;;;1.84;63.39;100421.53;4127449;28;20108;-76
2023/03/12 00:28:48;;;;;;;21.67;13.43;;;;;;;1.84;63.89;100412.94;4129978;28;20101;-76
2023/03/12 00:30:53;;;;;;;18.63;11.63;;;;;;;1.86;63.46;100413.94;4109196;28;20534;-76
2023/03/12 00:32:58;;;;;;;18.30;10.77;;;;;;;1.82;63.43;100418.00;4108449;28;20047;-76
2023/03/12 00:35:01;;;;;;;18.50;10.38;;;;;;;1.83;63.92;100417.22;4107402;28;20049;-76
2023/03/12 00:37:04;;;;;;;18.92;9.90;;;;;;;1.81;63.84;100415.38;4122099;28;20483;-76
2023/03/12 00:39:07;;;;;;;19.60;9.63;;;;;;;1.83;63.91;100418.91;4117912;28;20035;-76
2023/03/12 00:41:10;;;;;;;19.20;10.15;;;;;;;1.81;63.95;100417.94;4125958;28;20432;-76
2023/03/12 00:43:13;;;;;;;16.92;8.68;;;;;;;1.80;63.69;100429.00;4111579;28;20068;-76
2023/03/12 00:45:16;;;;;;;18.88;9.10;;;;;;;1.79;63.95;100417.88;4105533;28;20533;-76
2023/03/12 00:47:20;;;;;;;21.35;10.27;;;;;;;1.81;63.36;100426.53;4107021;28;20039;-76
2023/03/12 00:49:23;;;;;;;16.67;9.20;;;;;;;1.80;63.46;100422.19;4119894;28;20133;-76
2023/03/12 00:51:26;;;;;;;18.33;10.32;;;;;;;1.82;63.62;100417.16;4108966;28;20067;-76
2023/03/12 00:53:29;;;;;;;17.63;10.82;;;;;;;1.83;63.49;100414.66;4111417;28;20042;-75
2023/03/12 00:55:31;;;;;;;20.65;10.05;;;;;;;1.83;64.17;100416.34;4127921;28;20048;-75
2023/03/12 00:57:34;;;;;;;15.40;9.02;;;;;;;1.84;63.78;100410.38;4114017;28;20053;-75
2023/03/12 00:59:39;;;;;;;13.90;9.05;;;;;;;1.84;63.25;100408.72;4113905;28;20137;-75
2023/03/12 01:01:42;;;;;;;15.02;8.85;;;;;;;1.85;63.15;100417.28;4112499;28;20035;-75
2023/03/12 01:03:47;;;;;;;16.48;8.52;;;;;;;1.84;62.85;100411.28;4128563;28;20113;-75
2023/03/12 01:05:54;;;;;;;11.73;7.72;;;;;;;1.80;63.04;100408.50;4112942;28;20087;-75
2023/03/12 01:07:57;;;;;;;17.08;8.50;;;;;;;1.77;63.51;100408.34;4113824;28;20026;-75
2023/03/12 01:10:00;;;;;;;14.45;7.85;;;;;;;1.77;63.60;100414.38;4114915;28;20101;-76
2023/03/12 01:12:03;;;;;;;18.60;7.55;;;;;;;1.79;64.00;100410.19;4111296;28;20458;-76
2023/03/12 01:14:08;;;;;;;12.32;7.63;;;;;;;1.77;63.80;100411.78;4108938;28;20486;-76
2023/03/12 01:16:11;;;;;;;14.82;7.72;;;;;;;1.76;63.73;100414.28;4131321;28;20404;-77
2023/03/12 01:18:14;;;;;;;19.08;8.93;;;;;;;1.76;63.65;100416.84;4132035;28;20046;-76
2023/03/12 01:20:18;;;;;;;17.83;9.07;;;;;;;1.78;63.80;100412.66;4113177;28;20039;-76
2023/03/12 01:22:21;;;;;;;15.65;8.07;;;;;;;1.84;63.30;100411.28;4113340;28;20062;-76
2023/03/12 01:24:24;;;;;;;14.18;7.72;;;;;;;1.87;64.06;100410.53;4113538;28;20041;-76
2023/03/12 01:26:27;;;;;;;17.08;9.45;;;;;;;1.94;63.42;100411.72;4130816;28;20073;-76
2023/03/12 01:28:30;;;;;;;18.33;8.60;;;;;;;1.97;64.30;100406.75;4128781;28;20070;-76
2023/03/12 01:30:33;;;;;;;13.52;8.48;;;;;;;2.04;63.47;100411.34;4113382;28;20387;-76
2023/03/12 01:32:36;;;;;;;16.15;7.65;;;;;;;2.01;63.31;100409.53;4129779;28;20125;-76
2023/03/12 01:34:39;;;;;;;14.23;6.80;;;;;;;2.05;63.47;100410.56;4129193;28;20101;-77
2023/03/12 01:36:44;;;;;;;11.13;7.05;;;;;;;1.99;63.42;100413.72;4105176;28;20110;-76
2023/03/12 01:38:47;;;;;;;18.58;7.53;;;;;;;1.97;63.73;100417.00;4124965;28;20042;-76
2023/03/12 01:40:50;;;;;;;13.93;8.82;;;;;;;1.99;63.48;100421.41;4117149;28;20042;-76
2023/03/12 01:42:53;;;;;;;13.80;8.20;;;;;;;2.05;63.86;100416.56;4130243;28;20493;-77
2023/03/12 01:44:58;;;;;;;13.18;6.47;;;;;;;2.07;63.86;100414.97;4126469;28;20466;-76
2023/03/12 01:47:02;;;;;;;11.88;6.60;;;;;;;2.05;63.24;100421.69;4112252;28;20064;-76
2023/03/12 01:49:09;;;;;;;13.10;6.53;;;;;;;2.05;63.44;100408.88;4127800;28;20101;-76
2023/03/12 01:51:14;;;;;;;10.18;6.55;;;;;;;2.02;63.12;100408.72;4109423;28;20043;-76
2023/03/12 01:53:19;;;;;;;11.55;6.05;;;;;;;2.01;63.55;100394.13;4112197;28;20050;-76
2023/03/12 01:55:22;;;;;;;13.43;6.55;;;;;;;2.02;63.65;100403.59;4126426;28;20097;-76
2023/03/12 01:57:30;;;;;;;15.68;7.20;;;;;;;2.04;63.58;100398.53;4112893;28;20039;-76
2023/03/12 01:59:38;;;;;;;17.33;7.57;;;;;;;2.03;63.24;100387.41;4111979;28;20076;-76
2023/03/12 02:01:42;;;;;;;14.20;6.60;;;;;;;2.01;62.89;100373.63;4112220;28;20450;-76
2023/03/12 02:03:46;;;;;;;11.73;6.43;;;;;;;1.97;63.44;100386.22;4105941;28;20047;-76
2023/03/12 02:05:54;;;;;;;25.25;7.90;;;;;;;1.99;62.89;100377.81;4099637;28;20048;-76
2023/03/12 02:07:57;;;;;;;8.13;4.90;;;;;;;1.97;63.13;100383.66;4112880;28;20082;-76
2023/03/12 02:10:03;;;;;;;12.02;6.38;;;;;;;1.97;63.41;100373.41;4113046;28;20077;-76
2023/03/12 02:12:07;;;;;;;11.45;6.00;;;;;;;1.91;63.67;100377.47;4113083;28;20518;-76
2023/03/12 02:14:10;;;;;;;10.57;5.60;;;;;;;1.91;63.29;100376.56;4128489;28;20133;-76
2023/03/12 02:16:13;;;;;;;18.08;6.03;;;;;;;1.89;63.03;100378.19;4128540;28;20498;-77
2023/03/12 02:18:18;;;;;;;11.63;5.65;;;;;;;1.89;63.06;100379.06;4113118;28;20517;-76
2023/03/12 02:20:27;;;;;;;11.30;5.85;;;;;;;1.90;63.27;100369.69;4113451;28;20085;-76
2023/03/12 02:22:31;;;;;;;10.63;5.55;;;;;;;1.92;62.63;100370.63;4112516;28;20050;-77
2023/03/12 02:24:38;;;;;;;9.40;5.10;;;;;;;1.92;62.88;100376.63;4112830;28;20054;-77
2023/03/12 02:26:44;;;;;;;12.00;5.22;;;;;;;1.91;63.04;100368.88;4107400;28;20047;-77
2023/03/12 02:28:49;;;;;;;10.38;5.13;;;;;;;1.95;63.00;100373.34;4096687;29;20039;-76
2023/03/12 02:30:56;;;;;;;8.57;5.22;;;;;;;2.00;63.11;100376.13;4128170;28;20068;-77
2023/03/12 02:33:02;;;;;;;8.68;5.10;;;;;;;2.01;63.28;100363.38;4100455;28;20071;-77
2023/03/12 02:35:06;;;;;;;11.25;6.25;;;;;;;2.02;62.71;100367.69;4125612;28;20042;-76
2023/03/12 02:37:09;;;;;;;11.60;7.10;;;;;;;2.03;62.59;100372.03;4105702;28;20042;-76
2023/03/12 02:39:12;;;;;;;10.07;5.90;;;;;;;1.97;62.88;100371.75;4128519;28;20042;-77
2023/03/12 02:41:20;;;;;;;12.45;6.43;;;;;;;1.93;63.14;100369.84;4112475;28;20046;-77
2023/03/12 02:43:24;;;;;;;10.90;6.32;;;;;;;1.95;62.80;100367.34;4112489;28;20129;-76
2023/03/12 02:45:28;;;;;;;11.50;5.65;;;;;;;1.97;62.38;100356.38;4112861;28;20031;-76
2023/03/12 02:47:33;;;;;;;8.98;5.20;;;;;;;1.97;62.98;100358.94;4128337;28;20456;-77
2023/03/12 02:49:36;;;;;;;9.93;5.57;;;;;;;2.03;62.73;100361.78;4130015;28;20525;-76
2023/03/12 02:51:39;;;;;;;11.13;6.30;;;;;;;2.07;62.72;100356.00;4098265;28;20046;-77
2023/03/12 02:53:42;;;;;;;13.85;6.57;;;;;;;2.09;62.07;100361.19;4112968;28;20050;-76
2023/03/12 02:55:44;;;;;;;13.07;6.32;;;;;;;2.08;62.24;100355.16;4113242;28;20098;-77
2023/03/12 02:57:47;;;;;;;10.88;5.18;;;;;;;2.07;61.98;100344.84;4107831;28;20042;-76
2023/03/12 02:59:51;;;;;;;8.23;5.40;;;;;;;2.10;62.27;100347.53;4112468;28;20050;-76
2023/03/12 03:01:56;;;;;;;9.57;5.47;;;;;;;2.08;62.82;100350.03;4112263;28;20065;-76
2023/03/12 03:04:00;;;;;;;9.32;5.63;;;;;;;2.08;62.65;100344.91;4095735;29;20051;-76
2023/03/12 03:06:03;;;;;;;15.98;5.63;;;;;;;2.08;62.58;100344.91;4111167;28;20042;-76
2023/03/12 03:08:06;;;;;;;10.70;5.35;;;;;;;2.13;62.61;100351.94;4107596;28;20038;-76
2023/03/12 03:10:10;;;;;;;9.60;4.97;;;;;;;2.15;62.59;100345.22;4123788;28;20069;-76
2023/03/12 03:12:13;;;;;;;10.50;5.13;;;;;;;2.10;63.20;100350.09;4112245;28;20043;-76
2023/03/12 03:14:17;;;;;;;10.23;5.95;;;;;;;2.09;63.26;100351.78;4112432;28;20330;-76
2023/03/12 03:16:22;;;;;;;10.70;4.82;;;;;;;2.08;63.48;100347.47;4112394;28;20129;-77
2023/03/12 03:18:26;;;;;;;8.68;5.05;;;;;;;2.07;63.22;100348.28;4113079;28;20046;-77
2023/03/12 03:20:29;;;;;;;10.88;5.07;;;;;;;2.11;63.18;100353.56;4126518;28;20049;-77
2023/03/12 03:22:32;;;;;;;13.77;5.22;;;;;;;2.13;63.12;100354.50;4132611;28;20049;-76
2023/03/12 03:24:35;;;;;;;7.57;4.90;;;;;;;2.11;62.83;100353.56;4115397;28;20086;-75
2023/03/12 03:26:38;;;;;;;8.45;5.13;;;;;;;2.09;63.01;100356.94;4115321;28;20042;-75
2023/03/12 03:28:41;;;;;;;12.18;5.53;;;;;;;2.08;62.92;100350.03;4132374;28;20034;-75
2023/03/12 03:30:43;;;;;;;8.60;4.82;;;;;;;2.09;62.73;100354.38;4113330;28;20094;-76
2023/03/12 03:32:49;;;;;;;9.57;4.80;;;;;;;2.15;62.59;100355.47;4107408;28;20043;-76
2023/03/12 03:34:52;;;;;;;10.63;5.40;;;;;;;2.29;62.47;100348.41;4115341;28;20047;-75
2023/03/12 03:36:55;;;;;;;8.38;4.80;;;;;;;2.26;62.24;100349.13;4122670;28;20034;-75
2023/03/12 03:38:58;;;;;;;8.20;4.43;;;;;;;2.27;63.02;100351.75;4113754;28;20490;-76
2023/03/12 03:41:02;;;;;;;9.35;4.13;;;;;;;2.26;62.00;100355.16;4109660;28;20103;-76
2023/03/12 03:43:06;;;;;;;8.10;4.18;;;;;;;2.27;62.24;100351.75;4093069;29;20074;-76
2023/03/12 03:45:10;;;;;;;9.95;5.25;;;;;;;2.32;61.92;100359.66;4112935;28;20070;-76
2023/03/12 03:47:15;;;;;;;10.27;4.68;;;;;;;2.34;61.54;100354.63;4114346;28;20484;-75
2023/03/12 03:49:19;;;;;;;13.23;4.75;;;;;;;2.48;60.96;100342.41;4112071;28;20043;-76
2023/03/12 03:51:22;;;;;;;15.80;5.75;;;;;;;2.44;60.89;100344.84;4112461;28;20122;-76
2023/03/12 03:53:30;;;;;;;10.07;4.50;;;;;;;2.42;60.65;100346.47;4111674;28;20045;-76
2023/03/12 03:55:36;;;;;;;10.52;3.75;;;;;;;2.42;60.63;100351.59;4096122;29;20047;-76
2023/03/12 03:57:39;;;;;;;10.65;4.28;;;;;;;2.39;60.69;100346.31;4114534;28;20039;-76
2023/03/12 03:59:42;;;;;;;6.63;3.75;;;;;;;2.35;61.31;100348.66;4096979;29;20689;-76
2023/03/12 04:01:45;;;;;;;10.98;4.00;;;;;;;2.36;61.23;100351.31;4114830;28;20835;-76
2023/03/12 04:03:49;;;;;;;7.28;3.60;;;;;;;2.40;61.56;100357.47;4097753;28;20576;-75
2023/03/12 04:05:56;;;;;;;9.75;4.15;;;;;;;2.38;60.59;100359.06;4113869;28;20050;-76
2023/03/12 04:08:01;;;;;;;9.07;3.90;;;;;;;2.37;60.47;100350.50;4098197;29;20095;-76
2023/03/12 04:10:07;;;;;;;8.43;3.75;;;;;;;2.44;61.40;100339.72;4094164;29;20055;-76
2023/03/12 04:12:10;;;;;;;8.02;4.80;;;;;;;2.44;61.29;100339.72;4113190;28;21253;-75
2023/03/12 04:14:15;;;;;;;6.30;3.70;;;;;;;2.48;61.63;100334.72;4109924;28;20070;-75
2023/03/12 04:16:20;;;;;;;10.23;4.43;;;;;;;2.47;60.88;100345.78;4111326;28;20122;-76
2023/03/12 04:18:24;;;;;;;6.65;3.63;;;;;;;2.44;61.36;100347.41;4113213;28;20039;-76
2023/03/12 04:20:27;;;;;;;10.88;3.95;;;;;;;2.48;61.60;100340.72;4130966;28;20038;-76
2023/03/12 04:22:31;;;;;;;8.98;4.03;;;;;;;2.52;60.52;100339.16;4129841;28;20093;-76
2023/03/12 04:24:34;;;;;;;9.15;3.90;;;;;;;2.50;60.85;100343.34;4120232;28;20049;-76
2023/03/12 04:26:37;;;;;;;8.25;4.15;;;;;;;2.51;61.19;100337.41;4101253;28;20153;-76
2023/03/12 04:28:41;;;;;;;15.70;4.33;;;;;;;2.46;61.01;100344.91;4120363;28;20105;-77
2023/03/12 04:30:53;;;;;;;7.68;3.70;;;;;;;2.47;60.70;100346.66;4113505;28;20415;-76
2023/03/12 04:32:56;;;;;;;7.18;4.10;;;;;;;2.42;61.43;100346.47;4112404;28;20133;-76
2023/03/12 04:34:59;;;;;;;7.20;4.20;;;;;;;2.43;61.68;100350.78;4123524;28;20048;-76
2023/03/12 04:37:02;;;;;;;13.57;4.60;;;;;;;2.46;62.04;100354.31;4114965;28;20315;-76
2023/03/12 04:39:06;;;;;;;14.35;4.28;;;;;;;2.48;61.43;100350.09;4114107;28;20027;-76
2023/03/12 04:41:11;;;;;;;8.02;4.28;;;;;;;2.48;61.89;100347.53;4113980;28;20141;-76
2023/03/12 04:43:20;;;;;;;7.18;3.60;;;;;;;2.44;61.81;100352.53;4113670;28;20047;-76
2023/03/12 04:45:24;;;;;;;11.43;4.45;;;;;;;2.48;61.81;100350.09;4113846;28;20130;-75
2023/03/12 04:47:27;;;;;;;7.32;3.67;;;;;;;2.48;61.33;100350.09;4109057;28;20032;-76
2023/03/12 04:49:30;;;;;;;7.03;3.90;;;;;;;2.50;61.21;100351.03;4112442;28;20038;-77
2023/03/12 04:51:33;;;;;;;8.45;4.03;;;;;;;2.52;60.73;100365.69;4113455;28;20584;-76
2023/03/12 04:53:39;;;;;;;;;;;;;;;2.45;61.70;100355.97;4111497;28;20043;-76
2023/03/12 04:55:45;;;;;;;7.40;3.78;;;;;;;2.46;61.98;100351.72;4107492;28;19922;-76
2023/03/12 04:57:48;;;;;;;7.75;4.13;;;;;;;2.48;61.68;100350.97;4123470;28;20531;-76
2023/03/12 04:59:51;;;;;;;11.82;4.38;;;;;;;2.46;62.09;100346.59;4113665;28;20073;-76
2023/03/12 05:01:54;;;;;;;11.90;4.38;;;;;;;2.44;62.99;100352.53;4104475;28;20490;-75
2023/03/12 05:04:05;;;;;;;8.38;4.30;;;;;;;2.48;63.17;100344.97;4115115;28;20085;-77
2023/03/12 05:06:08;;;;;;;9.27;3.63;;;;;;;2.42;64.31;100350.69;4126751;28;20525;-70
2023/03/12 05:08:11;;;;;;;8.43;3.80;;;;;;;2.39;64.55;100340.31;4114076;28;20637;-70
2023/03/12 05:10:14;;;;;;;10.40;3.50;;;;;;;2.46;64.57;100342.34;4113493;28;20035;-70
2023/03/12 05:12:19;;;;;;;9.23;3.72;;;;;;;2.34;65.87;100336.66;4127515;28;20050;-69
2023/03/12 05:14:22;;;;;;;9.25;4.15;;;;;;;2.27;66.47;100335.50;4113976;28;20038;-69
2023/03/12 05:16:25;;;;;;;8.10;3.83;;;;;;;2.26;66.42;100339.75;4113764;28;20542;-69
2023/03/12 05:18:29;;;;;;;10.32;4.15;;;;;;;2.23;66.96;100331.03;4113845;28;20047;-69
2023/03/12 05:20:32;;;;;;;11.02;4.07;;;;;;;2.20;67.88;100334.31;4113808;28;20038;-69
2023/03/12 05:22:35;;;;;;;7.15;3.35;;;;;;;2.17;68.18;100334.19;4129559;28;20046;-70
2023/03/12 05:24:38;;;;;;;8.85;3.67;;;;;;;2.08;69.04;100326.94;4129711;28;20066;-70
2023/03/12 05:26:41;;;;;;;12.07;4.40;;;;;;;2.01;68.44;100326.59;4129289;28;20038;-70
2023/03/12 05:28:49;;;;;;;5.93;3.33;;;;;;;1.96;69.49;100328.97;4127205;28;20034;-70
2023/03/12 05:30:54;;;;;;;5.60;3.40;;;;;;;2.05;68.86;100318.25;4109114;28;20038;-69
2023/03/12 05:32:58;;;;;;;10.05;4.20;;;;;;;2.05;68.66;100318.25;4127839;28;20085;-70
2023/03/12 05:35:01;;;;;;;7.93;3.53;;;;;;;1.96;69.86;100318.72;4112195;28;20773;-70
2023/03/12 05:37:04;;;;;;;8.82;4.05;;;;;;;1.91;69.76;100315.94;4095441;29;20135;-70
2023/03/12 05:39:07;;;;;;;9.20;3.92;;;;;;;1.91;69.90;100318.50;4113137;28;20053;-70
2023/03/12 05:41:18;;;;;;;7.63;4.13;;;;;;;1.94;70.07;100314.31;4097009;28;20043;-70
2023/03/12 05:43:22;;;;;;;8.93;3.80;;;;;;;1.88;70.63;100314.91;4126506;28;20101;-69
2023/03/12 05:45:27;;;;;;;8.70;3.97;;;;;;;1.81;70.75;100313.75;4113082;28;20490;-70
2023/03/12 05:47:32;;;;;;;8.80;3.95;;;;;;;1.85;70.56;100307.06;4113711;28;20047;-70
2023/03/12 05:49:35;;;;;;;6.97;4.38;;;;;;;1.90;71.02;100313.31;4129025;28;20080;-70
2023/03/12 05:51:37;;;;;;;8.80;4.22;;;;;;;1.91;71.12;100304.78;4114465;28;20035;-69
2023/03/12 05:53:41;;;;;;;7.90;4.40;;;;;;;1.87;71.16;100310.56;4112582;28;20039;-69
2023/03/12 05:55:44;;;;;;;7.93;4.07;;;;;;;1.95;71.04;100321.19;4109505;28;20070;-69
2023/03/12 05:57:47;;;;;;;10.93;4.28;;;;;;;1.97;70.93;100315.34;4124429;28;20049;-70
2023/03/12 05:59:49;;;;;;;15.13;5.22;;;;;;;1.97;71.14;100315.34;4103361;28;20510;-70
2023/03/12 06:01:54;;;;;;;9.32;4.47;;;;;;;1.98;71.71;100314.50;4097290;28;20039;-69
2023/03/12 06:03:57;;;;;;;10.93;4.60;;;;;;;2.08;71.40;100320.97;4112902;28;20047;-70
2023/03/12 06:06:01;;;;;;;5.95;3.35;;;;;;;2.11;71.79;100320.22;4123571;28;20383;-70
2023/03/12 06:08:04;;;;;;;7.43;3.58;;;;;;;2.12;71.28;100322.88;4129110;28;20034;-70
2023/03/12 06:10:08;;;;;;;12.68;5.68;;;;;;;2.19;70.90;100317.22;4112926;28;20493;-70
2023/03/12 06:12:11;;;;;;;8.73;4.75;;;;;;;2.16;71.87;100324.75;4112452;28;20540;-70
2023/03/12 06:14:14;;;;;;;7.93;4.53;;;;;;;2.12;71.86;100325.44;4129210;28;20417;-70
2023/03/12 06:16:19;;;;;;;10.75;4.30;;;;;;;2.13;72.12;100327.16;4112856;28;20518;-70
2023/03/12 06:18:23;;;;;;;;;;;;;;;2.13;72.19;100321.16;4113313;28;20098;-70
2023/03/12 06:20:26;;;;;;;12.82;5.47;;;;;;;2.08;72.18;100324.38;4112493;28;19922;-70
2023/03/12 06:22:29;;;;;;;9.75;4.63;;;;;;;2.07;72.37;100320.09;4112671;28;20462;-70
2023/03/12 06:24:32;;;;;;;12.93;4.95;;;;;;;2.11;72.67;100307.41;4096927;29;20043;-69
2023/03/12 06:26:39;;;;;;;10.05;4.70;;;;;;;2.13;71.79;100303.22;4096692;29;20046;-70
2023/03/12 06:28:42;;;;;;;7.93;4.22;;;;;;;2.16;72.28;100311.94;4115072;28;20045;-70
2023/03/12 06:30:45;;;;;;;12.00;4.72;;;;;;;2.21;72.48;100307.03;4113010;28;20042;-70
2023/03/12 06:32:47;;;;;;;5.75;3.92;;;;;;;2.19;72.85;100312.06;4112335;28;20042;-70
2023/03/12 06:34:52;;;;;;;13.88;4.50;;;;;;;2.25;72.53;100306.34;4113547;28;20045;-71
2023/03/12 06:36:55;;;;;;;13.88;4.55;;;;;;;2.23;72.73;100315.66;4105693;28;20454;-70
2023/03/12 06:38:57;;;;;;;8.73;4.18;;;;;;;2.24;72.05;100313.16;4105348;28;20043;-70
2023/03/12 06:41:02;;;;;;;7.80;3.55;;;;;;;2.16;72.73;100314.50;4112924;28;20068;-70
2023/03/12 06:43:10;;;;;;;;;;;;;;;2.11;72.71;100309.97;4108674;28;20053;-70
2023/03/12 06:45:13;;;;;;;6.03;3.95;;;;;;;2.09;73.51;100310.78;4112221;28;20030;-71
2023/03/12 06:47:16;;;;;;;7.80;3.67;;;;;;;2.13;73.14;100310.91;4124822;28;20043;-71
2023/03/12 06:49:19;;;;;;;8.32;3.67;;;;;;;2.14;73.45;100313.53;4105288;28;20049;-71
2023/03/12 06:51:23;;;;;;;6.07;3.40;;;;;;;2.22;72.95;100304.53;4127158;28;20412;-71
2023/03/12 06:53:26;;;;;;;8.35;4.05;;;;;;;2.25;73.41;100317.47;4109698;28;20113;-71
2023/03/12 06:55:29;;;;;;;9.00;4.65;;;;;;;2.33;73.25;100320.38;4111108;28;20038;-71
2023/03/12 06:57:32;;;;;;;10.00;3.45;;;;;;;2.39;73.44;100315.50;4108184;28;20035;-71
2023/03/12 06:59:35;;;;;;;8.93;3.67;;;;;;;2.46;73.19;100315.81;4109091;28;20050;-71
2023/03/12 07:01:37;;;;;;;6.13;3.13;;;;;;;2.50;73.23;100317.69;4107685;28;20043;-71
2023/03/12 07:03:41;;;;;;;8.50;4.20;;;;;;;2.56;72.66;100310.28;4108284;28;20447;-72
2023/03/12 07:05:44;;;;;;;8.45;3.92;;;;;;;2.49;72.90;100301.41;4114928;28;20477;-70
2023/03/12 07:07:48;;;;;;;8.23;3.58;;;;;;;2.53;73.39;100307.59;4128520;28;20093;-71
2023/03/12 07:09:51;;;;;;;8.38;4.07;;;;;;;2.51;73.06;100309.19;4126708;28;20042;-71
2023/03/12 07:11:54;;;;;;;8.73;3.90;;;;;;;2.51;72.88;100319.44;4123657;28;20038;-71
2023/03/12 07:13:57;;;;;;;11.07;4.03;;;;;;;2.49;73.85;100319.38;4124811;28;20034;-71
2023/03/12 07:16:00;;;;;;;11.52;5.13;;;;;;;2.49;73.45;100316.81;4117772;28;20057;-71
2023/03/12 07:18:05;;;;;;;8.13;4.45;;;;;;;2.58;73.43;100314.66;4117368;28;20042;-70
2023/03/12 07:20:09;;;;;;;8.75;4.57;;;;;;;2.60;73.38;100317.31;4126390;28;20042;-74
2023/03/12 07:22:12;;;;;;;19.42;6.13;;;;;;;2.64;73.03;100314.03;4125506;28;20034;-73
2023/03/12 07:24:16;;;;;;;6.43;4.53;;;;;;;2.73;72.82;100301.63;4125107;28;20117;-74
2023/03/12 07:26:19;;;;;;;9.18;4.47;;;;;;;2.79;72.65;100301.88;4123541;28;20506;-70
2023/03/12 07:28:22;;;;;;;9.00;4.60;;;;;;;2.86;73.18;100302.13;4115490;28;20462;-71
2023/03/12 07:30:25;;;;;;;7.30;3.92;;;;;;;2.87;72.63;100309.03;4125087;28;20121;-70
2023/03/12 07:32:28;;;;;;;9.68;4.78;;;;;;;2.89;72.11;100312.53;4127167;28;20042;-63
2023/03/12 07:34:31;;;;;;;12.48;5.68;;;;;;;2.85;72.54;100315.78;4127991;28;20050;-71
2023/03/12 07:36:34;;;;;;;10.02;5.53;;;;;;;2.77;72.44;100313.78;4129285;28;20046;-76
2023/03/12 07:38:37;;;;;;;8.80;4.32;;;;;;;2.76;71.73;100308.56;4122395;28;20046;-75
2023/03/12 07:40:44;;;;;;;13.23;5.32;;;;;;;2.78;72.36;100314.66;4123161;28;20473;-75
2023/03/12 07:42:47;;;;;;;10.35;4.95;;;;;;;2.76;72.41;100309.47;4125971;28;20409;-75
2023/03/12 07:44:51;;;;;;;10.27;5.10;;;;;;;2.81;71.64;100303.66;4123265;28;20046;-75
2023/03/12 07:46:54;;;;;;;8.00;5.32;;;;;;;2.82;72.50;100305.38;4117267;28;20038;-75
2023/03/12 07:48:57;;;;;;;9.63;5.45;;;;;;;2.78;73.04;100300.13;4126652;28;20596;-75
2023/03/12 07:51:00;;;;;;;9.13;5.32;;;;;;;2.83;72.36;100309.72;4122315;28;20085;-75
2023/03/12 07:53:03;;;;;;;13.32;5.45;;;;;;;2.87;72.91;100303.91;4127182;28;20052;-76
2023/03/12 07:55:07;;;;;;;12.27;6.63;;;;;;;2.92;72.16;100310.09;4123345;28;20414;-75
2023/03/12 07:57:12;;;;;;;12.93;5.68;;;;;;;2.96;72.21;100309.41;4109587;28;20173;-75
2023/03/12 07:59:15;;;;;;;14.60;6.25;;;;;;;2.96;72.53;100310.31;4117724;28;20046;-75
2023/03/12 08:01:18;;;;;;;12.68;6.45;;;;;;;2.93;72.25;100315.28;4121096;28;20061;-75
2023/03/12 08:03:21;;;;;;;15.60;5.45;;;;;;;2.99;72.14;100314.69;4120940;28;20058;-66
2023/03/12 08:05:25;;;;;;;9.48;5.68;;;;;;;2.97;72.68;100327.44;4122144;28;20105;-70
2023/03/12 08:07:31;;;;;;;9.68;5.07;;;;;;;3.01;72.39;100318.22;4121699;28;20038;-70
2023/03/12 08:09:34;;;;;;;16.52;5.82;;;;;;;2.93;72.68;100324.69;4116001;28;20525;-70
2023/03/12 08:11:37;;;;;;;45.33;18.17;;;;;;;3.06;74.59;100328.66;4110047;28;20093;-69
2023/03/12 08:13:41;;;;;;;27.95;12.95;;;;;;;3.40;75.90;100328.41;4124241;28;20047;-69
2023/03/12 08:15:44;;;;;;;11.25;6.68;;;;;;;3.52;75.15;100327.13;4128295;28;20077;-71
2023/03/12 08:17:47;;;;;;;12.57;6.13;;;;;;;3.47;73.90;100322.66;4119678;28;20056;-71
2023/03/12 08:19:50;;;;;;;11.18;6.50;;;;;;;3.65;73.48;100319.06;4109481;28;20057;-73
2023/03/12 08:21:53;;;;;;;10.35;6.22;;;;;;;3.60;72.89;100331.75;4125554;28;20556;-65
2023/03/12 08:23:56;;;;;;;10.73;5.75;;;;;;;3.51;72.92;100330.53;4113620;28;21883;-64
2023/03/12 08:25:59;;;;;;;11.55;7.00;;;;;;;3.41;72.67;100330.13;4119149;28;20038;-67
2023/03/12 08:28:02;;;;;;;15.85;7.13;;;;;;;3.28;72.54;100335.59;4120624;28;20476;-78
2023/03/12 08:30:07;;;;;;;13.77;6.35;;;;;;;3.25;72.69;100338.03;4113231;28;20042;-67
2023/03/12 08:32:10;;;;;;;12.88;6.45;;;;;;;3.31;72.33;100333.13;4120503;28;20438;-66
2023/03/12 08:34:13;;;;;;;11.10;6.38;;;;;;;3.29;72.59;100319.34;4113130;28;20505;-68
2023/03/12 08:36:16;;;;;;;12.27;6.68;;;;;;;3.26;72.38;100316.66;4112072;28;20643;-69
2023/03/12 08:38:20;;;;;;;11.63;6.78;;;;;;;3.31;72.54;100317.72;4122590;28;20511;-69
2023/03/12 08:40:23;;;;;;;12.10;5.95;;;;;;;3.40;72.27;100306.94;4123516;28;20109;-74
2023/03/12 08:42:26;;;;;;;11.77;7.70;;;;;;;3.37;72.07;100311.97;4107191;28;20083;-74
2023/03/12 08:44:29;;;;;;;11.57;6.72;;;;;;;3.39;71.97;100308.66;4113806;28;20043;-67
2023/03/12 08:46:33;;;;;;;10.93;7.13;;;;;;;3.41;72.24;100309.56;4109669;28;20525;-66
2023/03/12 08:48:36;;;;;;;13.90;7.15;;;;;;;3.45;72.86;100306.31;4112330;28;20034;-66
2023/03/12 08:50:39;;;;;;;11.77;7.00;;;;;;;3.45;72.89;100316.59;4121030;28;20042;-67
2023/03/12 08:52:43;;;;;;;14.05;7.78;;;;;;;3.55;72.93;100298.97;4117616;28;20425;-66
2023/03/12 08:54:46;;;;;;;10.45;6.60;;;;;;;3.67;72.54;100302.91;4112736;28;20043;-64
2023/03/12 08:56:50;;;;;;;14.52;6.82;;;;;;;3.74;72.42;100305.72;4115066;28;20434;-68
2023/03/12 08:58:53;;;;;;;16.98;6.78;;;;;;;3.75;72.73;100292.94;4130771;28;20105;-66
2023/03/12 09:00:57;;;;;;;8.20;5.70;;;;;;;3.83;72.61;100299.25;4126536;28;20042;-67
2023/03/12 09:03:01;;;;;;;12.73;6.18;;;;;;;3.90;72.50;100310.66;4108619;28;20039;-66
2023/03/12 09:05:04;;;;;;;14.63;8.57;;;;;;;3.91;72.56;100307.25;4128707;28;20045;-67
2023/03/12 09:07:08;;;;;;;15.00;6.32;;;;;;;3.85;71.87;100301.88;4128060;28;20174;-69
2023/03/12 09:09:11;;;;;;;10.95;5.95;;;;;;;3.81;72.11;100307.69;4129348;28;20536;-68
2023/03/12 09:11:15;;;;;;;11.02;6.72;;;;;;;3.85;72.00;100312.16;4127774;28;20070;-68
2023/03/12 09:13:18;;;;;;;10.07;6.05;;;;;;;3.91;72.25;100309.81;4129036;28;20536;-68
2023/03/12 09:15:21;;;;;;;12.60;6.70;;;;;;;3.83;72.68;100303.50;4111912;28;20066;-69
2023/03/12 09:17:23;;;;;;;12.48;6.43;;;;;;;3.78;72.27;100302.44;4130006;28;20058;-66
2023/03/12 09:19:28;;;;;;;11.10;6.60;;;;;;;3.79;72.55;100307.66;4128968;28;20038;-69
2023/03/12 09:21:31;;;;;;;12.02;6.13;;;;;;;3.90;72.42;100307.19;4128275;28;20049;-69
2023/03/12 09:23:33;;;;;;;12.48;6.93;;;;;;;3.99;72.36;100315.28;4128953;28;20042;-67
2023/03/12 09:25:36;;;;;;;11.02;6.90;;;;;;;4.00;72.66;100312.75;4126188;28;20373;-65
2023/03/12 09:27:41;;;;;;;12.23;7.28;;;;;;;4.02;72.71;100310.25;4127761;28;20050;-78
2023/03/12 09:29:44;;;;;;;12.63;6.68;;;;;;;4.10;72.53;100305.38;4119134;28;20079;-70
2023/03/12 09:32:01;;;;;;;13.25;8.73;;;;;;;4.23;72.68;100309.28;4123431;28;20516;-70
2023/03/12 09:34:06;;;;;;;17.02;8.85;;;;;;;4.35;72.56;100312.31;4125359;28;20043;-71
2023/03/12 09:36:10;;;;;;;12.70;7.65;;;;;;;4.34;72.74;100315.72;4128707;28;20038;-69
2023/03/12 09:38:14;;;;;;;16.65;8.15;;;;;;;4.31;72.81;100313.91;4127122;28;20038;-73
2023/03/12 09:40:22;;;;;;;16.40;8.38;;;;;;;4.38;72.73;100320.16;4111366;28;20084;-72